Terminal Aerodrome Forecast
Issued by NWS

Home | Current Version | Previous Version | Text Only | Print | Product List | Glossary On
Versions: 1 2 3 4 5 6 7 8 9 10 11 12 13 14 15 16 17 18 19 20 21 22
000
FTUS45 KABQ 012300
TAFSAF
TAF
KSAF 012340Z 0200/0224 14014G24KT P6SM FEW015 SCT070
     FM020400 14012G22KT P6SM BKN015
     FM021700 19010G18KT P6SM VCSH BKN045
     FM022100 19012G20KT P6SM -SHRA BKN030=

USA.gov is the U.S. government's official web portal to all federal, state and local government web resources and services.